Time;durP1;ratioP1;P1;durP2;ratioP2;P2;SDS_P1;SDS_P2;PMS_P1;PMS_P2;Temp;Humidity;BMP_temperature;BMP_pressure;BME280_temperature;BME280_humidity;BME280_pressure;Samples;Min_cycle;Max_cycle;Signal;HPM_P1;HPM_P2
2022/04/06 00:35:34;;;;;;;4.93;2.10;;;8.50;99.90;;;;;;519543;26;21436;-87
2022/04/06 00:38:03;;;;;;;5.00;2.35;;;8.50;99.90;;;;;;4968985;28;20078;-87
2022/04/06 00:40:30;;;;;;;5.83;2.43;;;8.40;99.90;;;;;;4960566;28;20035;-87
2022/04/06 00:42:56;;;;;;;6.65;2.15;;;8.60;99.90;;;;;;4972927;28;20036;-87
2022/04/06 00:45:23;;;;;;;4.00;1.77;;;8.40;99.90;;;;;;4978771;28;20497;-87
2022/04/06 00:47:50;;;;;;;4.30;2.00;;;8.40;99.90;;;;;;4967125;28;20008;-87
2022/04/06 00:50:17;;;;;;;3.83;1.60;;;8.40;99.90;;;;;;4972169;28;20034;-88
2022/04/06 00:52:44;;;;;;;5.57;1.80;;;8.40;99.90;;;;;;4964395;28;20019;-88
2022/04/06 00:58:01;;;;;;;4.63;1.93;;;8.50;99.90;;;;;;4953212;28;20114;-87
2022/04/06 01:00:27;;;;;;;4.20;1.80;;;8.20;99.90;;;;;;4962191;28;20019;-88
2022/04/06 01:02:53;;;;;;;5.40;2.57;;;8.50;99.90;;;;;;4954230;29;20027;-87
2022/04/06 01:05:19;;;;;;;4.57;2.00;;;8.50;99.90;;;;;;4970043;28;20030;-87
2022/04/06 01:07:50;;;;;;;3.90;1.80;;;8.40;99.90;;;;;;4968060;28;20029;-87
2022/04/06 01:10:19;;;;;;;5.10;1.97;;;8.30;99.90;;;;;;4969219;28;20023;-87
2022/04/06 01:12:47;;;;;;;4.13;1.70;;;8.40;99.90;;;;;;4956174;28;20027;-87
2022/04/06 01:15:14;;;;;;;5.60;1.83;;;8.40;99.90;;;;;;4965567;28;20150;-87
2022/04/06 01:17:40;;;;;;;3.87;1.90;;;8.50;99.90;;;;;;4974889;28;20038;-87
2022/04/06 01:20:08;;;;;;;6.10;2.17;;;8.40;99.90;;;;;;4952054;28;20019;-87
2022/04/06 01:22:34;;;;;;;5.40;2.17;;;8.30;99.90;;;;;;4956587;29;20035;-87
2022/04/06 01:25:01;;;;;;;4.63;2.13;;;8.10;99.90;;;;;;4966936;28;20035;-87
2022/04/06 01:27:27;;;;;;;3.50;1.90;;;8.40;99.90;;;;;;4968543;28;20031;-87
2022/04/06 01:29:54;;;;;;;4.73;2.10;;;9.40;99.90;;;;;;4954075;28;20090;-86
2022/04/06 01:32:21;;;;;;;3.50;1.50;;;8.40;99.90;;;;;;4954364;29;20046;-87
2022/04/06 01:34:48;;;;;;;4.17;1.97;;;8.30;99.90;;;;;;4954686;28;20038;-87
2022/04/06 01:37:15;;;;;;;5.57;1.90;;;8.40;99.90;;;;;;4968886;28;20170;-87
2022/04/06 01:39:43;;;;;;;3.07;1.47;;;8.40;99.90;;;;;;4973861;28;20027;-87
2022/04/06 01:42:10;;;;;;;4.83;1.93;;;8.80;99.90;;;;;;4947417;28;20039;-88
2022/04/06 01:44:36;;;;;;;4.93;2.20;;;8.20;99.90;;;;;;4967380;28;20119;-86
2022/04/06 01:47:05;;;;;;;3.17;1.63;;;8.40;99.90;;;;;;4951896;28;20063;-89
2022/04/06 01:52:16;;;;;;;4.73;2.17;;;8.70;99.90;;;;;;4944829;29;20042;-86
2022/04/06 01:54:56;;;;;;;6.43;2.00;;;8.40;99.90;;;;;;4949834;29;20055;-87
2022/04/06 01:57:23;;;;;;;4.13;1.97;;;8.40;99.90;;;;;;4952514;29;20027;-86
2022/04/06 01:59:50;;;;;;;3.83;1.80;;;8.40;99.90;;;;;;4971821;28;20024;-87
2022/04/06 02:02:21;;;;;;;5.23;1.97;;;8.50;99.90;;;;;;4948390;29;20024;-87
2022/04/06 02:04:47;;;;;;;3.67;1.97;;;8.40;99.90;;;;;;4953102;29;20118;-87
2022/04/06 02:07:14;;;;;;;4.43;2.03;;;8.70;99.90;;;;;;4964072;28;20062;-86
2022/04/06 02:09:40;;;;;;;4.37;1.90;;;8.50;99.90;;;;;;4966536;28;20043;-86
2022/04/06 02:12:07;;;;;;;3.67;1.70;;;8.70;99.90;;;;;;4961712;28;20039;-87
2022/04/06 02:14:34;;;;;;;6.13;2.37;;;8.40;99.90;;;;;;4949358;29;20028;-86
2022/04/06 02:17:00;;;;;;;4.20;1.93;;;8.70;99.90;;;;;;4960607;28;20136;-86
2022/04/06 02:19:26;;;;;;;3.70;1.90;;;8.40;99.90;;;;;;4955880;28;20024;-86
2022/04/06 02:21:52;;;;;;;4.40;1.97;;;8.90;99.90;;;;;;4956998;29;20020;-86
2022/04/06 02:24:18;;;;;;;4.50;2.43;;;8.60;99.90;;;;;;4966243;28;20020;-86
2022/04/06 02:26:44;;;;;;;4.00;2.40;;;8.60;99.90;;;;;;4967803;28;20038;-86
2022/04/06 02:29:10;;;;;;;5.27;2.40;;;8.40;99.90;;;;;;4948617;28;20021;-87
2022/04/06 02:31:36;;;;;;;6.40;2.63;;;8.50;99.90;;;;;;4972122;28;20382;-86
2022/04/06 02:34:02;;;;;;;3.80;1.97;;;8.30;99.90;;;;;;4952136;29;20038;-87
2022/04/06 02:36:27;;;;;;;3.97;1.97;;;9.40;99.90;;;;;;4970333;28;20039;-88
2022/04/06 02:38:53;;;;;;;5.93;2.63;;;8.70;99.90;;;;;;4951275;29;20525;-87
2022/04/06 02:41:19;;;;;;;3.83;2.10;;;8.50;99.90;;;;;;4949850;29;20449;-86
2022/04/06 02:43:45;;;;;;;4.27;2.10;;;8.70;99.90;;;;;;4959082;28;20035;-87
2022/04/06 02:46:10;;;;;;;5.20;2.60;;;8.30;99.90;;;;;;4955861;28;20410;-87
2022/04/06 02:48:36;;;;;;;4.10;2.07;;;8.50;99.90;;;;;;4969034;28;20039;-88
2022/04/06 02:51:02;;;;;;;5.13;2.10;;;8.40;99.90;;;;;;4947991;29;20040;-87
2022/04/06 02:53:27;;;;;;;5.03;2.47;;;8.40;99.90;;;;;;4955269;29;20723;-88
2022/04/06 02:55:53;;;;;;;5.10;2.00;;;8.40;99.90;;;;;;4969881;28;20038;-87
2022/04/06 02:58:19;;;;;;;4.70;2.33;;;8.40;99.90;;;;;;4950175;28;20110;-88
2022/04/06 03:00:44;;;;;;;4.77;2.33;;;8.60;99.90;;;;;;4959929;28;20080;-87
2022/04/06 03:03:10;;;;;;;4.60;2.63;;;8.80;99.90;;;;;;4944420;29;20099;-88
2022/04/06 03:05:36;;;;;;;3.93;1.93;;;8.30;99.90;;;;;;4961549;28;20049;-87
2022/04/06 03:08:02;;;;;;;5.90;2.67;;;8.30;99.90;;;;;;4942359;29;20115;-87
2022/04/06 03:10:28;;;;;;;4.63;2.17;;;8.50;99.90;;;;;;4947876;29;20034;-87
2022/04/06 03:12:54;;;;;;;5.37;2.40;;;8.30;99.90;;;;;;4953774;28;20091;-88
2022/04/06 03:15:19;;;;;;;4.20;1.93;;;8.30;99.90;;;;;;4945324;29;20482;-87
2022/04/06 03:17:45;;;;;;;5.57;2.17;;;8.50;99.90;;;;;;4947754;29;20545;-87
2022/04/06 03:20:15;;;;;;;5.73;2.27;;;8.40;99.90;;;;;;4954872;29;20047;-87
2022/04/06 03:22:43;;;;;;;6.63;2.37;;;8.30;99.90;;;;;;4974667;28;20027;-86
2022/04/06 03:25:10;;;;;;;3.67;1.90;;;8.40;99.90;;;;;;4970006;28;20123;-86
2022/04/06 03:27:38;;;;;;;5.15;2.15;;;8.30;99.90;;;;;;4967099;28;20035;-87
2022/04/06 03:30:05;;;;;;;4.63;2.43;;;8.50;99.90;;;;;;4959796;29;20494;-87
2022/04/06 03:32:31;;;;;;;5.70;2.73;;;8.20;99.90;;;;;;4973234;28;20727;-87
2022/04/06 03:34:57;;;;;;;4.27;2.47;;;8.30;99.90;;;;;;4956474;28;20035;-87
2022/04/06 03:37:23;;;;;;;4.10;2.43;;;8.30;99.90;;;;;;4965967;28;20099;-88
2022/04/06 03:39:49;;;;;;;4.90;2.43;;;8.30;99.90;;;;;;4973282;28;20054;-87
2022/04/06 03:42:15;;;;;;;6.10;2.57;;;8.30;99.90;;;;;;4946759;29;20457;-87
2022/04/06 03:44:41;;;;;;;6.73;2.50;;;8.30;99.90;;;;;;4958137;28;20035;-87
2022/04/06 03:47:06;;;;;;;5.87;2.43;;;8.50;99.90;;;;;;4957557;28;20060;-87
2022/04/06 03:49:32;;;;;;;4.60;2.50;;;8.20;99.90;;;;;;4972944;28;20038;-88
2022/04/06 03:51:58;;;;;;;5.53;2.77;;;8.20;99.90;;;;;;4954788;29;20035;-85
2022/04/06 03:54:24;;;;;;;5.17;2.30;;;8.80;99.90;;;;;;4958318;28;20039;-88
2022/04/06 03:56:49;;;;;;;5.10;2.40;;;9.10;99.90;;;;;;4955906;28;20508;-86
2022/04/06 03:59:15;;;;;;;5.77;2.60;;;8.30;99.90;;;;;;4973149;28;20046;-87
2022/04/06 04:01:41;;;;;;;5.28;2.92;;;8.30;99.90;;;;;;4970930;28;20049;-86
2022/04/06 04:04:06;;;;;;;4.73;2.40;;;8.30;99.90;;;;;;4971523;28;20031;-87
2022/04/06 04:06:32;;;;;;;4.78;2.45;;;8.30;99.90;;;;;;4969932;28;20023;-87
2022/04/06 04:09:01;;;;;;;6.37;2.73;;;8.30;99.90;;;;;;4958036;28;20126;-85
2022/04/06 04:11:27;;;;;;;5.17;2.90;;;8.30;99.90;;;;;;4970793;28;20039;-86
2022/04/06 04:13:53;;;;;;;4.93;2.50;;;8.30;99.90;;;;;;4961332;28;20019;-86
2022/04/06 04:16:19;;;;;;;5.70;2.80;;;8.30;99.90;;;;;;4974062;28;20031;-86
2022/04/06 04:18:44;;;;;;;6.43;2.93;;;8.30;99.90;;;;;;4955213;28;20038;-86
2022/04/06 04:23:54;;;;;;;5.70;2.72;;;8.30;99.90;;;;;;4958252;29;20038;-87
2022/04/06 04:26:20;;;;;;;6.17;2.87;;;8.30;99.90;;;;;;4971593;28;20031;-87
2022/04/06 04:28:45;;;;;;;7.00;2.80;;;8.30;99.90;;;;;;4958085;29;20031;-86
2022/04/06 04:31:11;;;;;;;6.30;2.97;;;8.30;99.90;;;;;;4952747;29;20024;-85
2022/04/06 04:33:37;;;;;;;5.73;2.83;;;8.30;99.90;;;;;;4963744;28;20042;-87
2022/04/06 04:36:03;;;;;;;5.63;3.00;;;8.30;99.90;;;;;;4954808;28;20490;-85
2022/04/06 04:38:31;;;;;;;5.70;2.93;;;8.30;99.90;;;;;;4969788;28;20087;-87
2022/04/06 04:40:57;;;;;;;5.97;2.87;;;8.20;99.90;;;;;;4972224;28;20389;-87
2022/04/06 04:43:33;;;;;;;4.73;2.83;;;8.30;99.90;;;;;;4971549;28;20033;-87
2022/04/06 04:45:59;;;;;;;5.33;3.10;;;8.20;99.90;;;;;;4955585;28;20069;-87
2022/04/06 04:48:25;;;;;;;5.87;3.00;;;8.40;99.90;;;;;;4957184;29;20027;-87
2022/04/06 04:50:51;;;;;;;5.80;2.60;;;8.30;99.90;;;;;;4956528;29;20050;-87
2022/04/06 04:53:17;;;;;;;5.53;2.90;;;8.20;99.90;;;;;;4960291;28;20050;-87
2022/04/06 04:55:42;;;;;;;5.53;2.60;;;8.20;99.90;;;;;;4973591;28;20039;-87
2022/04/06 04:58:08;;;;;;;6.17;3.20;;;8.20;99.90;;;;;;4970831;28;20046;-86
2022/04/06 05:00:34;;;;;;;6.20;3.40;;;8.20;99.90;;;;;;4964634;28;20039;-86
2022/04/06 05:03:00;;;;;;;4.87;2.53;;;8.30;99.90;;;;;;4973408;28;20034;-87
2022/04/06 05:05:25;;;;;;;6.23;2.67;;;8.20;99.90;;;;;;4963653;28;20504;-86
2022/04/06 05:07:51;;;;;;;5.37;2.60;;;8.20;99.90;;;;;;4981242;28;20019;-85
2022/04/06 05:10:17;;;;;;;6.03;2.60;;;8.20;99.90;;;;;;4954270;28;20039;-85
2022/04/06 05:12:45;;;;;;;5.37;2.57;;;8.20;99.90;;;;;;4962659;28;20031;-85
2022/04/06 05:15:12;;;;;;;5.03;2.75;;;8.20;99.90;;;;;;4974705;28;20039;-85
2022/04/06 05:17:38;;;;;;;5.67;2.80;;;8.40;99.90;;;;;;4959818;28;20039;-87
2022/04/06 05:20:08;;;;;;;5.82;2.55;;;8.20;99.90;;;;;;4974424;28;20035;-86
2022/04/06 05:22:35;;;;;;;6.10;2.60;;;8.20;99.90;;;;;;4963346;28;20091;-86
2022/04/06 05:25:04;;;;;;;6.03;2.83;;;8.30;99.90;;;;;;4951855;28;20028;-87
2022/04/06 05:27:42;;;;;;;4.67;2.53;;;8.30;99.90;;;;;;4953259;29;20051;-85
2022/04/06 05:30:08;;;;;;;5.70;2.63;;;8.30;99.90;;;;;;4965820;28;20023;-87
2022/04/06 05:32:34;;;;;;;4.97;2.38;;;8.20;99.90;;;;;;4961997;29;20027;-85
2022/04/06 05:35:00;;;;;;;6.77;2.77;;;8.30;99.90;;;;;;4980975;28;20479;-86
2022/04/06 05:37:28;;;;;;;4.33;2.67;;;8.40;99.90;;;;;;4940542;29;20112;-86
2022/04/06 05:41:00;;;;;;;;;;;;;;;;;;;;;
2022/04/06 05:43:49;;;;;;;3.97;2.00;;;8.30;99.90;;;;;;4950500;29;20083;-87
2022/04/06 05:46:18;;;;;;;4.87;2.40;;;8.30;99.90;;;;;;4950517;29;20038;-88
2022/04/06 05:49:00;;;;;;;5.07;2.40;;;8.30;99.90;;;;;;4950884;29;20088;-88
2022/04/06 05:51:25;;;;;;;5.80;2.55;;;8.30;99.90;;;;;;4958271;29;20090;-88
2022/04/06 05:53:54;;;;;;;6.10;2.47;;;9.00;99.90;;;;;;4949247;29;20059;-87
2022/04/06 05:56:22;;;;;;;6.53;2.70;;;8.60;99.90;;;;;;4957967;28;20028;-88
2022/04/06 05:58:55;;;;;;;4.87;2.10;;;8.30;99.90;;;;;;4959253;28;20031;-89
2022/04/06 06:01:21;;;;;;;5.07;2.80;;;8.60;99.90;;;;;;4948878;28;20092;-89
2022/04/06 06:03:50;;;;;;;6.83;2.90;;;8.40;99.90;;;;;;4933235;29;20386;-89
2022/04/06 06:06:15;;;;;;;5.03;2.57;;;8.50;99.90;;;;;;4935072;29;20564;-89
2022/04/06 06:08:42;;;;;;;5.13;2.13;;;8.60;99.90;;;;;;4961593;29;20063;-88
2022/04/06 06:11:08;;;;;;;6.60;2.33;;;8.60;99.90;;;;;;4937223;29;20055;-88
2022/04/06 06:13:34;;;;;;;4.77;2.00;;;8.70;99.90;;;;;;4959113;28;20028;-87
2022/04/06 06:16:05;;;;;;;6.37;3.30;;;8.70;99.90;;;;;;4927722;29;20036;-88
2022/04/06 06:18:31;;;;;;;4.53;2.33;;;8.60;99.90;;;;;;4945431;29;20094;-87
2022/04/06 06:21:01;;;;;;;4.93;2.50;;;8.90;99.90;;;;;;4928184;29;20320;-89
2022/04/06 06:23:27;;;;;;;6.00;2.40;;;8.70;99.90;;;;;;4940392;29;20553;-87
2022/04/06 06:25:53;;;;;;;5.43;2.20;;;8.80;99.90;;;;;;4935065;29;20027;-86
2022/04/06 06:28:19;;;;;;;4.50;2.27;;;9.00;99.90;;;;;;4958635;28;20040;-86
2022/04/06 06:30:47;;;;;;;4.03;2.37;;;8.80;99.90;;;;;;4944929;29;20157;-88
2022/04/06 06:33:16;;;;;;;5.80;2.53;;;8.90;99.90;;;;;;4944409;29;20055;-87
2022/04/06 06:44:06;;;;;;;4.10;2.20;;;8.90;99.90;;;;;;1033652;26;20386;-87
2022/04/06 06:50:24;;;;;;;6.27;2.20;;;8.90;99.90;;;;;;4893338;29;20021;-86
2022/04/06 06:53:17;;;;;;;3.73;1.93;;;8.90;99.90;;;;;;4850904;29;20059;-87
2022/04/06 06:56:25;;;;;;;4.27;1.80;;;9.00;99.90;;;;;;4900582;29;20448;-87
2022/04/06 07:06:09;;;;;;;3.67;1.60;;;9.20;99.90;;;;;;4952836;28;20131;-87
2022/04/06 07:15:35;;;;;;;2.77;1.40;;;9.20;99.90;;;;;;4960021;28;20036;-86
2022/04/06 07:18:29;;;;;;;2.58;1.05;;;9.30;99.90;;;;;;4865987;29;20041;-87
2022/04/06 07:25:28;;;;;;;;;;;;;;;;;;;;;
2022/04/06 07:31:38;;;;;;;3.83;1.38;;;9.60;99.90;;;;;;4867007;29;20049;-87
2022/04/06 07:34:45;;;;;;;1.58;0.85;;;9.60;99.90;;;;;;4940034;29;20339;-87
2022/04/06 07:37:43;;;;;;;1.85;0.88;;;9.70;99.90;;;;;;4924428;29;20043;-87
2022/04/06 07:41:17;;;;;;;2.78;0.82;;;9.80;99.90;;;;;;4944141;28;20054;-87
2022/04/06 07:44:19;;;;;;;1.63;0.77;;;9.80;99.90;;;;;;4953696;28;20078;-86
2022/04/06 07:47:19;;;;;;;1.33;0.68;;;9.90;99.90;;;;;;4935318;29;20354;-85
2022/04/06 07:50:41;;;;;;;;;;;;;;;;;;;;;
2022/04/06 07:59:49;;;;;;;1.40;0.40;;;10.20;99.90;;;;;;4972889;28;20027;-87
2022/04/06 08:02:43;;;;;;;1.75;0.85;;;10.20;99.90;;;;;;4969714;28;20034;-87
2022/04/06 08:05:41;;;;;;;1.42;0.65;;;10.40;99.90;;;;;;4970561;28;20424;-88
2022/04/06 08:08:26;;;;;;;1.85;0.45;;;10.50;99.90;;;;;;4977227;28;20035;-88
2022/04/06 08:11:08;;;;;;;3.58;0.80;;;10.60;99.90;;;;;;4973108;28;20023;-87
2022/04/06 08:14:02;;;;;;;1.77;0.80;;;10.60;99.90;;;;;;4972402;28;20031;-87
2022/04/06 08:16:58;;;;;;;1.10;0.50;;;10.60;99.90;;;;;;4933173;29;20052;-86
2022/04/06 08:22:59;;;;;;;2.75;0.98;;;10.50;99.90;;;;;;4953316;28;20049;-86
2022/04/06 08:25:52;;;;;;;1.30;0.65;;;10.60;99.90;;;;;;4957981;28;20038;-87
2022/04/06 08:37:52;;;;;;;1.45;0.60;;;10.70;99.90;;;;;;4927247;29;20035;-88
2022/04/06 08:40:18;;;;;;;2.10;1.02;;;10.70;99.90;;;;;;4961767;28;20039;-87
2022/04/06 08:43:23;;;;;;;0.90;0.63;;;10.70;99.90;;;;;;4960447;28;20031;-87
2022/04/06 08:46:27;;;;;;;;;;;;;;;;;;;;;
2022/04/06 08:49:56;;;;;;;2.60;0.60;;;11.10;99.90;;;;;;4957060;28;20031;-87
2022/04/06 08:52:38;;;;;;;1.33;0.52;;;11.20;99.90;;;;;;4974562;28;20122;-88
2022/04/06 08:55:31;;;;;;;0.65;0.20;;;11.30;99.90;;;;;;4990156;28;20025;-88
2022/04/06 08:58:29;;;;;;;0.52;0.28;;;11.40;99.90;;;;;;4988788;28;20046;-87
2022/04/06 09:00:55;;;;;;;0.47;0.20;;;11.50;99.90;;;;;;4971666;28;20513;-86
2022/04/06 09:03:22;;;;;;;0.57;0.20;;;11.60;99.90;;;;;;4975035;28;20070;-86
2022/04/06 09:05:59;;;;;;;0.80;0.30;;;11.60;99.90;;;;;;4973431;28;20025;-85
2022/04/06 09:08:39;;;;;;;0.73;0.30;;;11.80;99.90;;;;;;4989603;28;20077;-86
2022/04/06 09:11:11;;;;;;;0.47;0.20;;;11.90;99.90;;;;;;4973854;28;20113;-86
2022/04/06 09:13:37;;;;;;;0.30;0.15;;;11.70;99.90;;;;;;4975230;28;20031;-85
2022/04/06 09:16:07;;;;;;;1.13;0.20;;;11.90;99.90;;;;;;4972729;28;20043;-86
2022/04/06 09:18:38;;;;;;;0.45;0.25;;;11.80;99.90;;;;;;4960118;28;20027;-87
2022/04/06 09:21:04;;;;;;;1.23;0.38;;;11.60;99.90;;;;;;4954812;29;20019;-86
2022/04/06 09:23:34;;;;;;;0.30;0.20;;;11.50;99.90;;;;;;4955818;28;20149;-86
2022/04/06 09:26:04;;;;;;;1.05;0.20;;;11.60;99.90;;;;;;4962725;28;20517;-86
2022/04/06 09:28:29;;;;;;;0.55;0.25;;;11.70;99.90;;;;;;4956865;28;20027;-86
2022/04/06 09:30:55;;;;;;;0.73;0.10;;;11.70;99.90;;;;;;4970681;28;20094;-86
2022/04/06 09:33:21;;;;;;;0.63;0.20;;;11.70;99.90;;;;;;4969709;28;20066;-87
2022/04/06 09:35:48;;;;;;;0.28;0.10;;;11.90;99.90;;;;;;4971863;28;20027;-86
2022/04/06 09:38:32;;;;;;;0.35;0.13;;;12.10;99.90;;;;;;4973935;28;20065;-86
2022/04/06 09:41:06;;;;;;;0.68;0.10;;;12.30;99.90;;;;;;4973145;28;20023;-86
2022/04/06 09:43:34;;;;;;;0.22;0.20;;;12.40;99.90;;;;;;4973578;28;20042;-86
2022/04/06 09:49:24;;;;;;;0.57;0.17;;;12.80;99.90;;;;;;4933754;29;20079;-86
2022/04/06 09:51:51;;;;;;;0.70;0.20;;;12.60;99.90;;;;;;4918396;29;20023;-86
2022/04/06 09:54:18;;;;;;;0.25;0.10;;;12.50;99.90;;;;;;4949648;28;20046;-85
2022/04/06 09:56:45;;;;;;;0.20;0.10;;;12.50;99.90;;;;;;4972224;28;20035;-86
2022/04/06 09:59:15;;;;;;;0.70;0.10;;;12.50;99.90;;;;;;4972926;28;20084;-88
2022/04/06 10:01:47;;;;;;;0.47;0.15;;;12.60;99.90;;;;;;4972937;28;20073;-85
2022/04/06 10:04:17;;;;;;;0.52;0.15;;;12.70;99.90;;;;;;4972506;28;20481;-86
2022/04/06 10:06:43;;;;;;;0.32;0.10;;;12.80;99.90;;;;;;4972871;28;20035;-86
2022/04/06 10:09:14;;;;;;;0.47;0.10;;;12.70;99.90;;;;;;4977027;28;20393;-86
2022/04/06 10:11:40;;;;;;;0.03;0.00;;;12.70;99.90;;;;;;4975442;28;20038;-86
2022/04/06 10:14:08;;;;;;;0.22;0.10;;;12.70;99.90;;;;;;4972387;28;20041;-85
2022/04/06 10:16:36;;;;;;;0.73;0.20;;;12.60;99.90;;;;;;4975361;28;20090;-84
2022/04/06 10:19:02;;;;;;;0.25;0.10;;;12.70;99.90;;;;;;4987643;28;20396;-85
2022/04/06 10:21:34;;;;;;;0.50;0.20;;;12.60;99.90;;;;;;4945204;28;20054;-86
2022/04/06 10:24:19;;;;;;;;;;;12.80;99.90;;;;;;4974991;28;20074;-86
2022/04/06 10:27:01;;;;;;;0.30;0.15;;;12.90;99.90;;;;;;4969077;28;19910;-86
2022/04/06 10:29:27;;;;;;;0.10;0.10;;;13.00;99.90;;;;;;4955569;28;20090;-86
2022/04/06 10:31:54;;;;;;;0.40;0.13;;;13.10;99.90;;;;;;4974359;28;20022;-87
2022/04/06 10:34:30;;;;;;;0.30;0.10;;;12.90;99.90;;;;;;4971838;28;20026;-86
2022/04/06 10:37:11;;;;;;;0.28;0.10;;;13.00;99.90;;;;;;4974142;28;20448;-85
2022/04/06 10:39:53;;;;;;;0.10;0.08;;;13.30;99.90;;;;;;4972555;28;20393;-86
2022/04/06 10:42:29;;;;;;;;;;;13.60;99.90;;;;;;4973561;28;20484;-86
2022/04/06 10:44:55;;;;;;;0.47;0.28;;;14.00;99.90;;;;;;4972170;28;19982;-85
2022/04/06 10:47:22;;;;;;;0.10;0.00;;;14.50;99.90;;;;;;4971976;28;20138;-85
2022/04/06 10:50:15;;;;;;;0.00;0.00;;;14.50;99.90;;;;;;4971768;28;20026;-87
2022/04/06 10:52:43;;;;;;;0.30;0.08;;;14.70;99.90;;;;;;4973253;28;20102;-86
2022/04/06 10:55:20;;;;;;;0.00;0.00;;;14.90;99.90;;;;;;4972875;28;20062;-86
2022/04/06 10:57:57;;;;;;;0.13;0.00;;;15.30;99.90;;;;;;4968274;28;20042;-86
2022/04/06 11:00:25;;;;;;;0.10;0.05;;;15.60;99.90;;;;;;4954819;28;20051;-86
2022/04/06 11:02:51;;;;;;;0.40;0.20;;;15.90;99.90;;;;;;4953223;29;20064;-86
2022/04/06 11:05:49;;;;;;;0.88;0.20;;;16.10;99.90;;;;;;4954270;28;20027;-85
2022/04/06 11:11:45;;;;;;;0.10;0.10;;;16.40;99.90;;;;;;4973980;28;20434;-87
2022/04/06 11:14:11;;;;;;;0.30;0.10;;;16.20;99.90;;;;;;4966984;28;20035;-87
2022/04/06 11:16:46;;;;;;;0.30;0.10;;;16.30;99.90;;;;;;4971523;28;20034;-87
2022/04/06 11:19:13;;;;;;;0.20;0.10;;;16.40;99.90;;;;;;4954817;28;20031;-87
2022/04/06 11:21:49;;;;;;;0.13;0.10;;;15.80;99.90;;;;;;4953724;28;20027;-87
2022/04/06 11:24:27;;;;;;;0.10;0.00;;;15.40;99.90;;;;;;4953805;28;20347;-87
2022/04/06 11:26:55;;;;;;;0.10;0.10;;;15.70;99.90;;;;;;4965527;28;20034;-87
2022/04/06 11:29:27;;;;;;;0.50;0.10;;;15.90;99.90;;;;;;4952720;29;20062;-87
2022/04/06 11:32:04;;;;;;;0.10;0.00;;;16.40;99.90;;;;;;4970420;28;20493;-87
2022/04/06 11:34:38;;;;;;;0.20;0.10;;;16.50;99.90;;;;;;4972755;28;20023;-87
2022/04/06 11:37:07;;;;;;;0.05;0.00;;;16.50;99.90;;;;;;4970710;28;20092;-88
2022/04/06 11:39:34;;;;;;;0.30;0.10;;;16.60;99.70;;;;;;4983699;28;20022;-87
2022/04/06 11:42:03;;;;;;;1.10;0.20;;;16.60;99.90;;;;;;4971905;28;20050;-87
2022/04/06 11:44:33;;;;;;;0.43;0.10;;;16.50;99.60;;;;;;4978555;28;20031;-87
2022/04/06 11:46:58;;;;;;;0.20;0.10;;;16.70;99.90;;;;;;4973497;28;20038;-86
2022/04/06 11:49:26;;;;;;;0.20;0.10;;;16.50;99.60;;;;;;4977022;28;20015;-88
2022/04/06 11:51:57;;;;;;;0.70;0.20;;;16.50;99.80;;;;;;4986355;28;20030;-87
2022/04/06 11:54:26;;;;;;;0.20;0.10;;;16.40;98.70;;;;;;4985610;28;20018;-88
2022/04/06 11:56:56;;;;;;;0.10;0.00;;;16.70;98.50;;;;;;4982441;28;20038;-87
2022/04/06 11:59:23;;;;;;;0.20;0.00;;;16.90;98.30;;;;;;4992583;28;20094;-86
2022/04/06 12:01:53;;;;;;;0.10;0.00;;;16.60;99.00;;;;;;5003798;28;20100;-87
2022/04/06 12:04:29;;;;;;;0.65;0.22;;;16.20;98.80;;;;;;4987406;28;20022;-87
2022/04/06 12:06:55;;;;;;;0.20;0.00;;;16.40;98.90;;;;;;4974285;28;20018;-86
2022/04/06 12:09:22;;;;;;;0.32;0.10;;;16.70;99.40;;;;;;4976996;28;20038;-87
2022/04/06 12:12:04;;;;;;;0.17;0.00;;;16.60;97.70;;;;;;4975233;28;20035;-87
2022/04/06 12:14:37;;;;;;;0.00;0.00;;;16.30;98.20;;;;;;4976306;28;20081;-87
2022/04/06 12:17:03;;;;;;;0.47;0.10;;;16.40;97.80;;;;;;4984794;28;20023;-87
2022/04/06 12:19:33;;;;;;;0.13;0.10;;;16.30;98.50;;;;;;4982333;28;20598;-87
2022/04/06 12:22:07;;;;;;;0.00;0.00;;;16.30;98.50;;;;;;4964890;28;20028;-87
2022/04/06 12:24:41;;;;;;;0.10;0.05;;;16.70;98.30;;;;;;4971820;28;20034;-86
2022/04/06 12:27:17;;;;;;;0.25;0.10;;;17.20;97.00;;;;;;4968260;28;20022;-87
2022/04/06 12:30:07;;;;;;;0.43;0.03;;;17.00;97.00;;;;;;4976640;28;20470;-87
2022/04/06 12:32:45;;;;;;;0.65;0.00;;;17.50;96.70;;;;;;4961613;28;20050;-87
2022/04/06 12:35:24;;;;;;;0.20;0.00;;;17.70;96.30;;;;;;4957675;28;20106;-87
2022/04/06 12:37:52;;;;;;;0.10;0.00;;;18.00;95.60;;;;;;4994768;23;20038;-86
2022/04/06 12:40:24;;;;;;;0.17;0.10;;;18.10;95.00;;;;;;5001145;28;20049;-86
2022/04/06 12:42:50;;;;;;;0.00;0.00;;;18.00;94.40;;;;;;5001222;28;20022;-87
2022/04/06 12:45:18;;;;;;;0.00;0.00;;;18.10;95.10;;;;;;5000779;28;20081;-87
2022/04/06 12:47:47;;;;;;;0.10;0.00;;;18.00;94.00;;;;;;5000392;28;20042;-86
2022/04/06 12:50:16;;;;;;;0.08;0.00;;;18.00;94.50;;;;;;4982905;28;20082;-86
2022/04/06 12:52:42;;;;;;;0.30;0.10;;;18.00;94.10;;;;;;4998412;28;20042;-87
2022/04/06 12:55:16;;;;;;;0.50;0.10;;;18.20;94.30;;;;;;5000556;28;20034;-86
2022/04/06 12:57:42;;;;;;;0.35;0.08;;;18.40;94.10;;;;;;4982135;28;20066;-87
2022/04/06 13:00:34;;;;;;;0.10;0.03;;;18.70;92.60;;;;;;4992846;28;20034;-86
2022/04/06 13:03:01;;;;;;;0.10;0.03;;;18.80;92.90;;;;;;4979493;28;20042;-86
2022/04/06 13:05:26;;;;;;;1.00;0.20;;;19.10;92.60;;;;;;4983066;28;20030;-86
2022/04/06 13:07:53;;;;;;;0.40;0.10;;;19.10;92.20;;;;;;4999435;28;20022;-86
2022/04/06 13:10:27;;;;;;;0.25;0.05;;;19.40;91.50;;;;;;4985199;28;20027;-87
2022/04/06 13:12:53;;;;;;;0.10;0.05;;;18.90;90.80;;;;;;4984624;28;20073;-86
2022/04/06 13:15:19;;;;;;;0.10;0.00;;;18.60;91.40;;;;;;4979250;28;20173;-86
2022/04/06 13:17:49;;;;;;;0.10;0.00;;;18.80;92.20;;;;;;5002309;28;20287;-87
2022/04/06 13:20:18;;;;;;;0.65;0.10;;;18.80;91.60;;;;;;5002346;28;20569;-87
2022/04/06 13:22:45;;;;;;;0.17;0.03;;;18.90;90.80;;;;;;5001753;28;20067;-87
2022/04/06 13:25:16;;;;;;;0.00;0.00;;;19.40;90.80;;;;;;5000273;28;20015;-87
2022/04/06 13:27:43;;;;;;;0.38;0.10;;;19.90;90.30;;;;;;4967012;28;20027;-87
2022/04/06 13:30:13;;;;;;;0.35;0.10;;;19.60;89.30;;;;;;4984389;28;20069;-87
2022/04/06 13:32:43;;;;;;;0.10;0.05;;;19.80;89.10;;;;;;4985103;28;20028;-87
2022/04/06 13:35:09;;;;;;;0.47;0.10;;;19.80;89.00;;;;;;5005071;28;20062;-88
2022/04/06 13:37:35;;;;;;;0.40;0.13;;;19.40;89.60;;;;;;5002101;28;20038;-88
2022/04/06 13:40:02;;;;;;;0.05;0.00;;;19.50;88.90;;;;;;5009646;28;20033;-88
2022/04/06 13:42:31;;;;;;;0.50;0.10;;;19.40;88.60;;;;;;4994476;28;20018;-89
2022/04/06 13:44:59;;;;;;;0.30;0.05;;;19.50;86.70;;;;;;5013186;28;20050;-89
2022/04/06 13:47:27;;;;;;;0.10;0.00;;;19.30;89.20;;;;;;5009790;28;20553;-86
2022/04/06 13:49:53;;;;;;;0.28;0.10;;;19.20;87.30;;;;;;4988632;28;20029;-89
2022/04/06 13:52:19;;;;;;;0.38;0.10;;;18.80;88.70;;;;;;4987033;28;20026;-88
2022/04/06 13:54:45;;;;;;;0.43;0.10;;;18.40;88.80;;;;;;5003126;28;20061;-88
2022/04/06 13:57:16;;;;;;;0.30;0.10;;;18.50;89.40;;;;;;5002661;28;20018;-89
2022/04/06 13:59:42;;;;;;;0.15;0.00;;;19.00;88.80;;;;;;4984880;28;20049;-88
2022/04/06 14:02:12;;;;;;;0.40;0.08;;;19.50;88.20;;;;;;4971991;28;20022;-88
2022/04/06 14:04:38;;;;;;;0.50;0.20;;;20.20;88.40;;;;;;5002401;28;20065;-89
2022/04/06 14:07:04;;;;;;;0.55;0.10;;;20.60;86.90;;;;;;4994455;28;20469;-89
2022/04/06 14:09:38;;;;;;;0.10;0.03;;;20.70;83.40;;;;;;4982708;28;20038;-87
2022/04/06 14:12:04;;;;;;;0.17;0.10;;;20.30;83.10;;;;;;4984368;28;20050;-88
2022/04/06 14:14:33;;;;;;;0.32;0.10;;;20.40;84.70;;;;;;5000607;28;20041;-90
2022/04/06 14:16:59;;;;;;;0.00;0.00;;;19.70;83.30;;;;;;4998605;28;20057;-89
2022/04/06 14:19:25;;;;;;;0.15;0.05;;;19.50;84.80;;;;;;5000246;28;20030;-89
2022/04/06 14:21:50;;;;;;;0.52;0.10;;;18.80;85.00;;;;;;5002554;28;20018;-88
2022/04/06 14:24:20;;;;;;;0.20;0.10;;;18.80;88.40;;;;;;4993379;28;20451;-89
2022/04/06 14:26:46;;;;;;;0.10;0.10;;;17.60;90.00;;;;;;4991320;28;20025;-87
2022/04/06 14:29:12;;;;;;;0.03;0.00;;;17.40;90.70;;;;;;4972416;28;20596;-89
2022/04/06 14:31:40;;;;;;;0.10;0.03;;;17.20;91.10;;;;;;4992377;28;20026;-88
2022/04/06 14:34:14;;;;;;;1.08;0.20;;;16.90;91.50;;;;;;4993639;28;20498;-89
2022/04/06 14:36:41;;;;;;;0.15;0.10;;;16.90;91.40;;;;;;4987666;28;20039;-90
2022/04/06 14:39:07;;;;;;;0.00;0.00;;;16.90;91.70;;;;;;4983927;28;20027;-89
2022/04/06 14:41:35;;;;;;;0.13;0.08;;;16.80;92.50;;;;;;4996500;28;20034;-88
2022/04/06 14:44:01;;;;;;;0.00;0.00;;;17.00;92.40;;;;;;4977721;28;20059;-89
2022/04/06 14:46:32;;;;;;;0.13;0.10;;;17.50;92.10;;;;;;4996535;28;20085;-89
2022/04/06 14:49:01;;;;;;;0.10;0.00;;;18.00;91.60;;;;;;4983678;28;20490;-89
2022/04/06 14:51:30;;;;;;;3.33;0.20;;;17.70;91.60;;;;;;4994152;28;20030;-89
2022/04/06 14:53:58;;;;;;;0.10;0.05;;;17.80;91.60;;;;;;4981442;28;20038;-89
2022/04/06 14:56:27;;;;;;;0.40;0.13;;;18.30;91.10;;;;;;5003606;28;20053;-90
2022/04/06 14:58:59;;;;;;;0.47;0.00;;;18.50;90.60;;;;;;4997774;28;20026;-89
2022/04/06 15:01:27;;;;;;;0.20;0.08;;;18.70;90.30;;;;;;5006392;28;20058;-90